If you wish to contribute or participate in the discussions about articles you are invited to join SKYbrary as a registered user

 Actions

Banjarmasin/Syamsudin Noor Airport

From SKYbrary Wiki

WAOO
Airport
ICAO: WAOO – IATA: BDJ
Summary
Name Banjarmasin/Syamsudin Noor Airport
Region Asia and Pacific
Territory Indonesia ID.gif
Location Banjarbaru, Kalimantan Selatan
Serving Banjarmasin
Elevation 20.117 m
66 ft
66 ft20.117 m
Type small airport
Coordinates 3° 26' 32.48" S, 114° 45' 45.19" E
Runways
Designator Length Width Surface ROPS
10/28 2500 m8,202.1 ft
45 m147.638 ft
ASP yes/yes


METAR
Observation WAOO 161400Z 00000KT 9000 SCT018 28/26 Q1011 NOSIG
Station SYAMSUDIN NOOR
Date/Time 16 April 2019 14:00:00
Wind direction
Wind speed 00 kts
Lowest cloud amount scattered clouds
Temperature 28°C
Dew point 26°C
Humidity 88%
QNH 1011 hPa
Weather condition n/a

Maps

Terrain

Loading map...

Airport Layout

Loading map...


Accidents & Serious Incidents at or in vicinity of WAOO

None on SKYbrary